Peawanuck, Canada
Current Conditions -  °F | °C
As of 7:00 AM on Friday 28 Nov 2014 (Local Time) from CYPO Reporting Station
Clear Clear  
Wind Chill: -31°   Ceiling: Unl
Heat Index: -13°   Visibility: 9mi
Dew Point: -18°   Wind: 9mph
Humidity: 77%   Direction: 250°WSW
Pressure: 29.99"   Gusts: NA
Location:  55.01°N, 85.42°W
Report Text: CYPO 281200Z AUTO 25008KT 9SM CLR M25/M28 A2999 RMK SLP161
Loading
Personal Weather Stations






























Interactive Weather Map New forecast layout! Learn more

10-Day Weather Forecast

Advertisements
Track Severe Weather on mobile